Huvudsida
METAR-TAF:

METAR-TAF

Flygplatser :

Reschen Pass, Italien

latitud: 46-50N, longitud: 010-30E, höjd: 1800 m

Aktuellt väderrapport

Denna rapport gjordes för 57 minuter sedan, klockan 12:55 UTC
Vind 2 kt från syd/sydväst
Temperatur 10°C
Fuktighet 43%
Tryck 1030 hPa
Sikt 10 km eller mer
Inga moln under 1 500 m eller inga cumulonimbus

METAR: LIVE 221255Z 21002KT CAVOK 10/M02 Q1030 RMK SCT SCT200 VIS MIN 9999

Tid: 14:52 (13:52 UTC)


TAF: saknas

Aktuella väderrapporter och prognoser från 4000 flygplatser (METAR- och TAF-rapporter).

De tillgängliga stationerna syns som gula och röda prickar på kartan.

För musen över prickarna för att se namnen på stationerna.

Klicka sedan för att få väderrapporter och prognoser.

För att ändra kartan: Klicka på de gröna knapparna med ett svart kors på för att zooma in; den gröna knappen med ett streck på för att zooma ut; eller på de gröna pilarna för angränsande kartor.


METAR-TAF: